DLH1244 EDDF-EDDH
Flight info
| Callsign | DLH1244 |
|---|---|
| Flight time | 0h 44m |
| Altitude | 31000 |
| Route | MARUN3W/25C MARUN Y150 TOLGI DCT SAS/N0441F300 P605 NOLGO NOLGO3P |
| Aircraft | A320/M-SDE3FGHIRWY/LB1 |
Departure
| Time | 2026-05-04 12:03 |
|---|---|
| Airport | Frankfurt Main Airport (EDDF) |
Arrival
| Time | 2026-05-04 12:48 |
|---|---|
| Airport | Hamburg Helmut Schmidt Airport (EDDH) |
| Time | Latitude | Longitude | Altitude | Speed | Heading |
|---|---|---|---|---|---|
| 2026-05-04 11:41 | 50.04901 | 8.58796 | 362 ft | 0 kts | 160° |
| 2026-05-04 11:57 | 50.04904 | 8.58794 | 362 ft | 3 kts | 160° |
| 2026-05-04 11:57 | 50.04929 | 8.58780 | 361 ft | 4 kts | 163° |
| 2026-05-04 11:57 | 50.04955 | 8.58771 | 360 ft | 4 kts | 180° |
| 2026-05-04 11:58 | 50.04976 | 8.58780 | 361 ft | 3 kts | 242° |
| 2026-05-04 11:58 | 50.04978 | 8.58785 | 367 ft | 0 kts | 249° |
| 2026-05-04 12:00 | 50.04973 | 8.58765 | 365 ft | 7 kts | 249° |
| 2026-05-04 12:00 | 50.04947 | 8.58688 | 359 ft | 7 kts | 226° |
| 2026-05-04 12:00 | 50.04903 | 8.58678 | 361 ft | 7 kts | 169° |
| 2026-05-04 12:00 | 50.04849 | 8.58707 | 363 ft | 7 kts | 161° |
| 2026-05-04 12:01 | 50.04810 | 8.58729 | 366 ft | 7 kts | 160° |
| 2026-05-04 12:01 | 50.04752 | 8.58761 | 367 ft | 11 kts | 162° |
| 2026-05-04 12:02 | 50.04239 | 8.57558 | 365 ft | 105 kts | 250° |
| 2026-05-04 12:03 | 50.03920 | 8.56220 | 366 ft | 156 kts | 250° |
| 2026-05-04 12:03 | 50.03525 | 8.54573 | 821 ft | 168 kts | 249° |
| 2026-05-04 12:03 | 50.03113 | 8.52852 | 1402 ft | 179 kts | 248° |
| 2026-05-04 12:03 | 50.02642 | 8.50945 | 1900 ft | 195 kts | 243° |
| 2026-05-04 12:04 | 50.01836 | 8.49242 | 2609 ft | 199 kts | 220° |
| 2026-05-04 12:04 | 50.00641 | 8.48174 | 3405 ft | 200 kts | 198° |
| 2026-05-04 12:04 | 49.99254 | 8.47780 | 4131 ft | 205 kts | 190° |
| 2026-05-04 12:04 | 49.97832 | 8.47468 | 4878 ft | 208 kts | 191° |
| 2026-05-04 12:05 | 49.96406 | 8.47153 | 5637 ft | 210 kts | 192° |
| 2026-05-04 12:05 | 49.94945 | 8.46562 | 6113 ft | 228 kts | 199° |
| 2026-05-04 12:05 | 49.93367 | 8.45833 | 6636 ft | 242 kts | 199° |
| 2026-05-04 12:05 | 49.91863 | 8.44661 | 7372 ft | 244 kts | 222° |
| 2026-05-04 12:06 | 49.90877 | 8.42550 | 8169 ft | 247 kts | 249° |
| 2026-05-04 12:06 | 49.90642 | 8.39902 | 8945 ft | 256 kts | 273° |
| 2026-05-04 12:06 | 49.91236 | 8.37172 | 9375 ft | 281 kts | 302° |
| 2026-05-04 12:06 | 49.92719 | 8.35120 | 10018 ft | 296 kts | 332° |
| 2026-05-04 12:07 | 49.94797 | 8.34364 | 10301 ft | 323 kts | 1° |
| 2026-05-04 12:07 | 49.97057 | 8.35175 | 10607 ft | 343 kts | 20° |
| 2026-05-04 12:07 | 49.99262 | 8.36734 | 11247 ft | 350 kts | 28° |
| 2026-05-04 12:07 | 50.01373 | 8.38560 | 11967 ft | 354 kts | 30° |
| 2026-05-04 12:08 | 50.03514 | 8.40512 | 12711 ft | 358 kts | 30° |
| 2026-05-04 12:08 | 50.05678 | 8.42449 | 13453 ft | 361 kts | 30° |
| 2026-05-04 12:08 | 50.07893 | 8.44351 | 14128 ft | 365 kts | 28° |
| 2026-05-04 12:08 | 50.10159 | 8.46217 | 14732 ft | 369 kts | 27° |
| 2026-05-04 12:09 | 50.12462 | 8.48055 | 15335 ft | 373 kts | 26° |
| 2026-05-04 12:09 | 50.14792 | 8.49885 | 15927 ft | 377 kts | 26° |
| 2026-05-04 12:09 | 50.17154 | 8.51732 | 16524 ft | 382 kts | 26° |
| 2026-05-04 12:09 | 50.19536 | 8.53605 | 17116 ft | 386 kts | 26° |
| 2026-05-04 12:10 | 50.21947 | 8.55516 | 17702 ft | 390 kts | 26° |
| 2026-05-04 12:10 | 50.24382 | 8.57455 | 18283 ft | 394 kts | 26° |
| 2026-05-04 12:10 | 50.26834 | 8.59414 | 18782 ft | 398 kts | 26° |
| 2026-05-04 12:10 | 50.29273 | 8.61368 | 19304 ft | 402 kts | 26° |
| 2026-05-04 12:11 | 50.31776 | 8.63375 | 19839 ft | 405 kts | 26° |
| 2026-05-04 12:11 | 50.34295 | 8.65396 | 20338 ft | 409 kts | 26° |
| 2026-05-04 12:11 | 50.36840 | 8.67435 | 20829 ft | 412 kts | 26° |
| 2026-05-04 12:11 | 50.39400 | 8.69490 | 21310 ft | 415 kts | 26° |
| 2026-05-04 12:12 | 50.41978 | 8.71564 | 21772 ft | 419 kts | 26° |
| 2026-05-04 12:12 | 50.44579 | 8.73663 | 22248 ft | 422 kts | 26° |
| 2026-05-04 12:12 | 50.47198 | 8.75776 | 22713 ft | 425 kts | 26° |
| 2026-05-04 12:12 | 50.49844 | 8.77913 | 23167 ft | 428 kts | 26° |
| 2026-05-04 12:13 | 50.52505 | 8.80066 | 23602 ft | 432 kts | 26° |
| 2026-05-04 12:14 | 50.71590 | 8.95558 | 26220 ft | 451 kts | 26° |
| 2026-05-04 12:15 | 50.74389 | 8.97841 | 26578 ft | 454 kts | 26° |
| 2026-05-04 12:15 | 50.77202 | 9.00140 | 26912 ft | 457 kts | 26° |
| 2026-05-04 12:15 | 50.80032 | 9.02457 | 27242 ft | 459 kts | 26° |
| 2026-05-04 12:15 | 50.82880 | 9.04791 | 27560 ft | 462 kts | 26° |
| 2026-05-04 12:16 | 50.85742 | 9.07141 | 27892 ft | 465 kts | 26° |
| 2026-05-04 12:16 | 50.87648 | 9.08708 | 28113 ft | 466 kts | 26° |
| 2026-05-04 12:16 | 50.90534 | 9.11087 | 28437 ft | 469 kts | 26° |
| 2026-05-04 12:16 | 50.93436 | 9.13484 | 28760 ft | 472 kts | 26° |
| 2026-05-04 12:17 | 50.96358 | 9.15900 | 29070 ft | 474 kts | 26° |
| 2026-05-04 12:17 | 51.00247 | 9.19118 | 29483 ft | 478 kts | 25° |
| 2026-05-04 12:17 | 51.03203 | 9.21564 | 29766 ft | 481 kts | 25° |
| 2026-05-04 12:17 | 51.05213 | 9.23229 | 29961 ft | 482 kts | 25° |
| 2026-05-04 12:18 | 51.08193 | 9.25701 | 30215 ft | 484 kts | 25° |
| 2026-05-04 12:18 | 51.11268 | 9.27855 | 30459 ft | 483 kts | 16° |
| 2026-05-04 12:18 | 51.14502 | 9.29320 | 30708 ft | 481 kts | 8° |
| 2026-05-04 12:18 | 51.17738 | 9.30433 | 30927 ft | 482 kts | 8° |
| 2026-05-04 12:19 | 51.24202 | 9.32674 | 30986 ft | 465 kts | 8° |
| 2026-05-04 12:19 | 51.30487 | 9.34862 | 30997 ft | 461 kts | 8° |
| 2026-05-04 12:20 | 51.36757 | 9.37043 | 30978 ft | 460 kts | 8° |
| 2026-05-04 12:20 | 51.43015 | 9.39216 | 31005 ft | 460 kts | 8° |
| 2026-05-04 12:21 | 51.49283 | 9.41414 | 31004 ft | 461 kts | 8° |
| 2026-05-04 12:21 | 51.55552 | 9.43619 | 30999 ft | 461 kts | 8° |
| 2026-05-04 12:22 | 51.61816 | 9.45823 | 30986 ft | 461 kts | 8° |
| 2026-05-04 12:22 | 51.68038 | 9.48012 | 31006 ft | 461 kts | 7° |
| 2026-05-04 12:23 | 51.74312 | 9.50311 | 31006 ft | 462 kts | 8° |
| 2026-05-04 12:23 | 51.80596 | 9.52538 | 30995 ft | 462 kts | 9° |
| 2026-05-04 12:24 | 51.86644 | 9.56314 | 30982 ft | 470 kts | 24° |
| 2026-05-04 12:24 | 51.92472 | 9.61150 | 30989 ft | 471 kts | 23° |
| 2026-05-04 12:25 | 51.98284 | 9.65988 | 30978 ft | 471 kts | 23° |
| 2026-05-04 12:25 | 52.04078 | 9.70804 | 30970 ft | 470 kts | 23° |
| 2026-05-04 12:26 | 52.09901 | 9.75663 | 30972 ft | 470 kts | 24° |
| 2026-05-04 12:26 | 52.15729 | 9.80544 | 30998 ft | 471 kts | 23° |
| 2026-05-04 12:27 | 52.21557 | 9.85445 | 31002 ft | 472 kts | 23° |
| 2026-05-04 12:27 | 52.27564 | 9.89530 | 30806 ft | 463 kts | 10° |
| 2026-05-04 12:28 | 52.30672 | 9.90887 | 30504 ft | 461 kts | 9° |
| 2026-05-04 12:28 | 52.33754 | 9.92236 | 29921 ft | 459 kts | 9° |
| 2026-05-04 12:28 | 52.36836 | 9.93594 | 29333 ft | 456 kts | 9° |
| 2026-05-04 12:28 | 52.39853 | 9.94923 | 28760 ft | 452 kts | 9° |
| 2026-05-04 12:29 | 52.42876 | 9.96255 | 28209 ft | 448 kts | 9° |
| 2026-05-04 12:29 | 52.45862 | 9.97568 | 27651 ft | 444 kts | 10° |
| 2026-05-04 12:29 | 52.48850 | 9.98883 | 27107 ft | 440 kts | 10° |
| 2026-05-04 12:29 | 52.51795 | 10.00189 | 26567 ft | 437 kts | 10° |
| 2026-05-04 12:30 | 52.54723 | 10.01498 | 26030 ft | 435 kts | 10° |
| 2026-05-04 12:30 | 52.57637 | 10.02802 | 25502 ft | 434 kts | 10° |
| 2026-05-04 12:30 | 52.60551 | 10.04100 | 24974 ft | 435 kts | 10° |
| 2026-05-04 12:30 | 52.63477 | 10.05402 | 24433 ft | 435 kts | 10° |
| 2026-05-04 12:31 | 52.66394 | 10.06701 | 23920 ft | 434 kts | 10° |
| 2026-05-04 12:31 | 52.69314 | 10.08005 | 23404 ft | 433 kts | 11° |
| 2026-05-04 12:31 | 52.72207 | 10.09305 | 22887 ft | 429 kts | 11° |
| 2026-05-04 12:31 | 52.75075 | 10.10599 | 22414 ft | 424 kts | 11° |
| 2026-05-04 12:32 | 52.77922 | 10.11617 | 21955 ft | 413 kts | 2° |
| 2026-05-04 12:32 | 52.83550 | 10.11978 | 21077 ft | 400 kts | 355° |
| 2026-05-04 12:32 | 52.86288 | 10.12066 | 20616 ft | 397 kts | 355° |
| 2026-05-04 12:33 | 52.89038 | 10.12160 | 20161 ft | 393 kts | 356° |
| 2026-05-04 12:33 | 52.91762 | 10.12251 | 19708 ft | 390 kts | 356° |
| 2026-05-04 12:33 | 52.94478 | 10.12337 | 19238 ft | 388 kts | 356° |
| 2026-05-04 12:33 | 52.97172 | 10.12423 | 18778 ft | 386 kts | 356° |
| 2026-05-04 12:34 | 52.99849 | 10.12508 | 18304 ft | 385 kts | 356° |
| 2026-05-04 12:34 | 53.00777 | 10.12538 | 18117 ft | 384 kts | 356° |
| 2026-05-04 12:34 | 53.01599 | 10.12564 | 17963 ft | 384 kts | 356° |
| 2026-05-04 12:34 | 53.04259 | 10.12648 | 17483 ft | 381 kts | 356° |
| 2026-05-04 12:35 | 53.06902 | 10.12733 | 17008 ft | 378 kts | 356° |
| 2026-05-04 12:35 | 53.09524 | 10.12819 | 16551 ft | 375 kts | 356° |
| 2026-05-04 12:35 | 53.12133 | 10.12906 | 16090 ft | 373 kts | 356° |
| 2026-05-04 12:35 | 53.14723 | 10.12993 | 15631 ft | 371 kts | 357° |
| 2026-05-04 12:36 | 53.17258 | 10.13080 | 15181 ft | 369 kts | 357° |
| 2026-05-04 12:36 | 53.19819 | 10.13168 | 14725 ft | 366 kts | 357° |
| 2026-05-04 12:36 | 53.22364 | 10.13255 | 14268 ft | 364 kts | 357° |
| 2026-05-04 12:36 | 53.24896 | 10.13342 | 13814 ft | 363 kts | 357° |
| 2026-05-04 12:37 | 53.27409 | 10.13429 | 13311 ft | 360 kts | 358° |
| 2026-05-04 12:37 | 53.29905 | 10.13513 | 12840 ft | 357 kts | 358° |
| 2026-05-04 12:37 | 53.32381 | 10.13593 | 12330 ft | 355 kts | 358° |
| 2026-05-04 12:37 | 53.34839 | 10.13674 | 11802 ft | 347 kts | 358° |
| 2026-05-04 12:38 | 53.37203 | 10.13760 | 11303 ft | 333 kts | 358° |
| 2026-05-04 12:38 | 53.39479 | 10.13838 | 10809 ft | 321 kts | 356° |
| 2026-05-04 12:38 | 53.41659 | 10.13617 | 10323 ft | 309 kts | 352° |
| 2026-05-04 12:38 | 53.43772 | 10.13350 | 9854 ft | 300 kts | 352° |
| 2026-05-04 12:39 | 53.45831 | 10.13085 | 9325 ft | 292 kts | 352° |
| 2026-05-04 12:39 | 53.47831 | 10.12826 | 8802 ft | 285 kts | 352° |
| 2026-05-04 12:39 | 53.49781 | 10.12576 | 8276 ft | 278 kts | 352° |
| 2026-05-04 12:39 | 53.51687 | 10.12332 | 7787 ft | 272 kts | 352° |
| 2026-05-04 12:40 | 53.53558 | 10.12091 | 7285 ft | 266 kts | 352° |
| 2026-05-04 12:40 | 53.55385 | 10.11855 | 6794 ft | 261 kts | 352° |
| 2026-05-04 12:40 | 53.57179 | 10.11994 | 6313 ft | 259 kts | 10° |
| 2026-05-04 12:40 | 53.58847 | 10.13127 | 5793 ft | 259 kts | 30° |
| 2026-05-04 12:41 | 53.60191 | 10.15125 | 5286 ft | 258 kts | 48° |
| 2026-05-04 12:41 | 53.61312 | 10.17404 | 4787 ft | 254 kts | 47° |
| 2026-05-04 12:41 | 53.62444 | 10.19687 | 4273 ft | 253 kts | 47° |
| 2026-05-04 12:41 | 53.63571 | 10.21957 | 3771 ft | 252 kts | 48° |
| 2026-05-04 12:42 | 53.64694 | 10.24226 | 3265 ft | 251 kts | 48° |
| 2026-05-04 12:42 | 53.65790 | 10.26447 | 2989 ft | 239 kts | 46° |
| 2026-05-04 12:42 | 53.67030 | 10.27991 | 2982 ft | 210 kts | 13° |
| 2026-05-04 12:42 | 53.68388 | 10.28040 | 2991 ft | 190 kts | 335° |
| 2026-05-04 12:43 | 53.69479 | 10.26913 | 2998 ft | 183 kts | 318° |
| 2026-05-04 12:43 | 53.70437 | 10.25502 | 2999 ft | 182 kts | 315° |
| 2026-05-04 12:43 | 53.71368 | 10.24050 | 3010 ft | 182 kts | 315° |
| 2026-05-04 12:43 | 53.72283 | 10.22573 | 3001 ft | 181 kts | 308° |
| 2026-05-04 12:44 | 53.72783 | 10.20694 | 2964 ft | 176 kts | 275° |
| 2026-05-04 12:44 | 53.72644 | 10.18665 | 2865 ft | 177 kts | 249° |
| 2026-05-04 12:44 | 53.71960 | 10.16954 | 2637 ft | 177 kts | 232° |
| 2026-05-04 12:44 | 53.71169 | 10.15353 | 2404 ft | 177 kts | 232° |
| 2026-05-04 12:45 | 53.70396 | 10.13783 | 2169 ft | 176 kts | 232° |
| 2026-05-04 12:45 | 53.69617 | 10.12198 | 1923 ft | 176 kts | 233° |
| 2026-05-04 12:45 | 53.68847 | 10.10632 | 1715 ft | 166 kts | 233° |
| 2026-05-04 12:45 | 53.68147 | 10.09210 | 1482 ft | 151 kts | 234° |
| 2026-05-04 12:46 | 53.67490 | 10.07872 | 1279 ft | 145 kts | 235° |
| 2026-05-04 12:46 | 53.66853 | 10.06575 | 1089 ft | 143 kts | 234° |
| 2026-05-04 12:46 | 53.66219 | 10.05286 | 897 ft | 143 kts | 234° |
| 2026-05-04 12:46 | 53.65583 | 10.03994 | 701 ft | 143 kts | 234° |
| 2026-05-04 12:47 | 53.64956 | 10.02705 | 493 ft | 140 kts | 234° |
| 2026-05-04 12:47 | 53.64326 | 10.01424 | 303 ft | 142 kts | 231° |
| 2026-05-04 12:47 | 53.63690 | 10.00152 | 109 ft | 141 kts | 233° |
| 2026-05-04 12:47 | 53.63092 | 9.98929 | 46 ft | 118 kts | 231° |
| 2026-05-04 12:48 | 53.62687 | 9.98107 | 42 ft | 66 kts | 230° |
| 2026-05-04 12:48 | 53.62491 | 9.97809 | 41 ft | 25 kts | 190° |
| 2026-05-04 12:48 | 53.62427 | 9.97893 | 45 ft | 7 kts | 87° |
| 2026-05-04 12:48 | 53.62433 | 9.97949 | 47 ft | 3 kts | 79° |
| 2026-05-04 12:49 | 53.62437 | 9.97981 | 44 ft | 7 kts | 79° |
| 2026-05-04 12:49 | 53.62482 | 9.98131 | 47 ft | 16 kts | 51° |
| 2026-05-04 12:49 | 53.62550 | 9.98270 | 47 ft | 15 kts | 49° |
| 2026-05-04 12:49 | 53.62613 | 9.98398 | 47 ft | 13 kts | 51° |
| 2026-05-04 12:50 | 53.62688 | 9.98548 | 47 ft | 20 kts | 50° |
| 2026-05-04 12:50 | 53.62777 | 9.98728 | 47 ft | 20 kts | 51° |
| 2026-05-04 12:50 | 53.62869 | 9.98914 | 47 ft | 21 kts | 50° |
| 2026-05-04 12:50 | 53.62964 | 9.99105 | 47 ft | 22 kts | 50° |
| 2026-05-04 12:51 | 53.63026 | 9.99235 | 47 ft | 13 kts | 52° |
| 2026-05-04 12:51 | 53.63077 | 9.99350 | 47 ft | 11 kts | 54° |
| 2026-05-04 12:51 | 53.63122 | 9.99456 | 46 ft | 11 kts | 54° |
| 2026-05-04 12:51 | 53.63162 | 9.99553 | 46 ft | 10 kts | 52° |
| 2026-05-04 12:52 | 53.63198 | 9.99630 | 48 ft | 8 kts | 49° |
| 2026-05-04 12:52 | 53.63244 | 9.99708 | 48 ft | 12 kts | 43° |
| 2026-05-04 12:52 | 53.63311 | 9.99828 | 48 ft | 17 kts | 50° |
| 2026-05-04 12:52 | 53.63392 | 9.99991 | 48 ft | 18 kts | 50° |
| 2026-05-04 12:53 | 53.63409 | 10.00166 | 48 ft | 16 kts | 133° |
| 2026-05-04 12:53 | 53.63329 | 10.00246 | 48 ft | 10 kts | 107° |
| 2026-05-04 12:53 | 53.63329 | 10.00314 | 48 ft | 4 kts | 87° |
| 2026-05-04 12:53 | 53.63330 | 10.00336 | 48 ft | 1 kts | 86° |
| 2026-05-04 12:54 | 53.63331 | 10.00347 | 48 ft | 0 kts | 86° |